Time;durP1;ratioP1;P1;durP2;ratioP2;P2;SDS_P1;SDS_P2;PMS_P1;PMS_P2;Temp;Humidity;BMP_temperature;BMP_pressure;BME280_temperature;BME280_humidity;BME280_pressure;Samples;Min_cycle;Max_cycle;Signal;HPM_P1;HPM_P2
2023/10/30 00:01:04;;;;;;;4.93;1.35;;;;;;;;;;5939315;29;20453;-89
2023/10/30 00:04:06;;;;;;;4.43;1.27;;;;;;;;;;5945243;29;20433;-90
2023/10/30 00:07:08;;;;;;;2.47;1.05;;;;;;;;;;5940010;29;20502;-90
2023/10/30 00:10:09;;;;;;;6.00;0.93;;;;;;;;;;5938659;29;20047;-90
2023/10/30 00:13:11;;;;;;;4.22;1.20;;;;;;;;;;5943406;29;20082;-90
2023/10/30 00:16:13;;;;;;;2.85;1.00;;;;;;;;;;5927352;29;20537;-90
2023/10/30 00:19:15;;;;;;;5.72;1.35;;;;;;;;;;5940610;29;20043;-89
2023/10/30 00:22:16;;;;;;;1.90;1.27;;;;;;;;;;5933425;29;20062;-89
2023/10/30 00:25:18;;;;;;;3.55;1.10;;;;;;;;;;5934989;29;20557;-89
2023/10/30 00:28:20;;;;;;;3.22;1.13;;;;;;;;;;5932152;29;20068;-90
2023/10/30 00:31:22;;;;;;;2.80;1.13;;;;;;;;;;5933978;29;20532;-89
2023/10/30 00:34:24;;;;;;;2.83;1.17;;;;;;;;;;5944750;29;20070;-90
2023/10/30 00:37:25;;;;;;;2.88;0.85;;;;;;;;;;5940512;29;20141;-89
2023/10/30 00:40:30;;;;;;;3.78;1.13;;;;;;;;;;5930387;29;20130;-89
2023/10/30 00:43:31;;;;;;;4.95;1.02;;;;;;;;;;5948605;29;20058;-89
2023/10/30 00:46:33;;;;;;;3.90;0.93;;;;;;;;;;5944196;29;20411;-90
2023/10/30 00:49:35;;;;;;;4.72;1.60;;;;;;;;;;5947577;29;20047;-89
2023/10/30 00:52:37;;;;;;;3.63;1.20;;;;;;;;;;5945969;29;20051;-89
2023/10/30 00:55:40;;;;;;;1.55;1.00;;;;;;;;;;5942476;29;20058;-90
2023/10/30 00:58:41;;;;;;;4.20;1.08;;;;;;;;;;5926463;29;20911;-89
2023/10/30 01:01:43;;;;;;;2.75;0.82;;;;;;;;;;5939109;29;20131;-90
2023/10/30 01:04:45;;;;;;;2.67;1.20;;;;;;;;;;5934252;29;20079;-90
2023/10/30 01:07:47;;;;;;;3.50;0.97;;;;;;;;;;5936922;29;20069;-90
2023/10/30 01:10:49;;;;;;;3.08;1.60;;;;;;;;;;5946199;29;20087;-90
2023/10/30 01:13:51;;;;;;;3.55;1.10;;;;;;;;;;5943986;29;20089;-90
2023/10/30 01:16:53;;;;;;;5.38;1.00;;;;;;;;;;5945744;29;20058;-90
2023/10/30 01:19:55;;;;;;;2.63;1.30;;;;;;;;;;5947512;29;20425;-89
2023/10/30 01:22:58;;;;;;;4.07;0.93;;;;;;;;;;5942380;29;20058;-90
2023/10/30 01:25:59;;;;;;;4.05;1.08;;;;;;;;;;5941748;29;20051;-90
2023/10/30 01:29:01;;;;;;;2.38;1.25;;;;;;;;;;5945604;29;20425;-90
2023/10/30 01:32:03;;;;;;;4.07;1.17;;;;;;;;;;5927960;29;20084;-90
2023/10/30 01:35:05;;;;;;;2.33;0.90;;;;;;;;;;5944171;29;20924;-90
2023/10/30 01:38:07;;;;;;;5.43;1.15;;;;;;;;;;5940524;29;20051;-91
2023/10/30 01:41:09;;;;;;;5.70;1.00;;;;;;;;;;5926187;29;20054;-91
2023/10/30 01:44:11;;;;;;;3.35;1.27;;;;;;;;;;5941494;29;20062;-89
2023/10/30 01:47:12;;;;;;;2.92;1.00;;;;;;;;;;5941328;29;20517;-89
2023/10/30 01:50:16;;;;;;;2.20;1.10;;;;;;;;;;5930670;29;20400;-90
2023/10/30 01:53:20;;;;;;;4.47;1.10;;;;;;;;;;5928181;29;20047;-89
2023/10/30 01:56:24;;;;;;;5.15;1.25;;;;;;;;;;5929730;29;20054;-90
2023/10/30 01:59:25;;;;;;;5.50;1.20;;;;;;;;;;5926611;29;20051;-89
2023/10/30 02:02:30;;;;;;;5.28;1.30;;;;;;;;;;5931457;29;20054;-90
2023/10/30 02:05:32;;;;;;;6.82;1.25;;;;;;;;;;5930648;29;20054;-91
2023/10/30 02:08:33;;;;;;;4.40;1.20;;;;;;;;;;5931705;29;20058;-90
2023/10/30 02:11:35;;;;;;;6.93;1.50;;;;;;;;;;5928941;29;20050;-90
2023/10/30 02:14:37;;;;;;;2.55;1.30;;;;;;;;;;5936839;29;20049;-90
2023/10/30 02:17:39;;;;;;;4.70;1.40;;;;;;;;;;5949343;29;20183;-90
2023/10/30 02:20:40;;;;;;;3.42;1.70;;;;;;;;;;5973670;29;20106;-90
2023/10/30 02:23:42;;;;;;;3.20;1.33;;;;;;;;;;5971591;29;20069;-90
2023/10/30 02:26:44;;;;;;;4.47;1.15;;;;;;;;;;5975623;29;20047;-90
2023/10/30 02:29:45;;;;;;;4.68;1.67;;;;;;;;;;5937778;29;20062;-90
2023/10/30 02:32:47;;;;;;;2.75;1.10;;;;;;;;;;5953515;29;20050;-90
2023/10/30 02:35:49;;;;;;;3.08;1.67;;;;;;;;;;5955761;29;20062;-87
2023/10/30 02:38:52;;;;;;;6.47;1.48;;;;;;;;;;5951641;29;20050;-86
2023/10/30 02:41:54;;;;;;;4.53;1.50;;;;;;;;;;5935719;29;20429;-86
2023/10/30 02:44:55;;;;;;;5.45;1.63;;;;;;;;;;5945211;29;20053;-91
2023/10/30 02:47:57;;;;;;;4.28;1.35;;;;;;;;;;5948436;29;20066;-88
2023/10/30 02:50:59;;;;;;;5.75;1.52;;;;;;;;;;5953851;29;20399;-88
2023/10/30 02:54:01;;;;;;;4.38;1.70;;;;;;;;;;5951365;29;20058;-88
2023/10/30 02:57:03;;;;;;;3.28;1.73;;;;;;;;;;5935932;29;20081;-88
2023/10/30 03:00:06;;;;;;;3.17;1.40;;;;;;;;;;5945444;29;20058;-88
2023/10/30 03:03:09;;;;;;;3.85;1.40;;;;;;;;;;5934866;29;20070;-88
2023/10/30 03:06:11;;;;;;;3.85;1.33;;;;;;;;;;5949517;29;20093;-88
2023/10/30 03:09:13;;;;;;;4.68;1.65;;;;;;;;;;5947921;29;20084;-88
2023/10/30 03:12:15;;;;;;;3.30;1.45;;;;;;;;;;5939015;29;20046;-88
2023/10/30 03:15:17;;;;;;;4.50;1.70;;;;;;;;;;5927349;29;20055;-87
2023/10/30 03:18:18;;;;;;;4.68;1.42;;;;;;;;;;5936913;29;20047;-88
2023/10/30 03:21:20;;;;;;;4.95;1.50;;;;;;;;;;5923585;29;20106;-88
2023/10/30 03:24:22;;;;;;;5.00;1.58;;;;;;;;;;5944795;29;20043;-88
2023/10/30 03:27:23;;;;;;;4.38;1.00;;;;;;;;;;5942825;29;20552;-88
2023/10/30 03:30:28;;;;;;;2.85;1.30;;;;;;;;;;5936361;29;20540;-88
2023/10/30 03:33:31;;;;;;;;;;;;;;;;;;5931014;29;20434;-89
2023/10/30 03:36:33;;;;;;;4.00;1.30;;;;;;;;;;5950906;29;19928;-88
2023/10/30 03:39:36;;;;;;;4.53;1.40;;;;;;;;;;5938312;29;20054;-87
2023/10/30 03:42:39;;;;;;;5.07;1.35;;;;;;;;;;5934064;29;20514;-87
2023/10/30 03:45:44;;;;;;;2.47;1.38;;;;;;;;;;5948651;29;20191;-88
2023/10/30 03:48:48;;;;;;;4.13;1.40;;;;;;;;;;5935878;29;20043;-88
2023/10/30 03:51:51;;;;;;;4.60;1.40;;;;;;;;;;5950053;29;20061;-88
2023/10/30 03:54:52;;;;;;;3.55;1.60;;;;;;;;;;5944844;29;20426;-88
2023/10/30 03:57:54;;;;;;;6.05;1.40;;;;;;;;;;5934174;29;20058;-89
2023/10/30 04:00:55;;;;;;;2.90;1.60;;;;;;;;;;5946711;29;20524;-90
2023/10/30 04:03:57;;;;;;;4.25;1.52;;;;;;;;;;5949120;29;20051;-90
2023/10/30 04:07:00;;;;;;;5.30;1.50;;;;;;;;;;5945997;29;20050;-90
2023/10/30 04:10:02;;;;;;;3.70;1.58;;;;;;;;;;5931380;29;20137;-90
2023/10/30 04:13:04;;;;;;;2.97;1.50;;;;;;;;;;5942341;29;20054;-89
2023/10/30 04:16:08;;;;;;;3.47;1.52;;;;;;;;;;5943008;29;20054;-89
2023/10/30 04:19:10;;;;;;;3.90;1.50;;;;;;;;;;5949470;29;20435;-89
2023/10/30 04:22:12;;;;;;;5.90;1.50;;;;;;;;;;5949236;29;20047;-88
2023/10/30 04:25:14;;;;;;;3.22;1.50;;;;;;;;;;5949654;29;20120;-89
2023/10/30 04:28:16;;;;;;;3.88;1.67;;;;;;;;;;5948793;29;20135;-91
2023/10/30 04:31:18;;;;;;;5.80;2.00;;;;;;;;;;5948205;29;20047;-90
2023/10/30 04:34:25;;;;;;;4.55;1.40;;;;;;;;;;5934058;29;20514;-90
2023/10/30 04:37:27;;;;;;;4.28;1.80;;;;;;;;;;5906030;29;20146;-88
2023/10/30 04:40:29;;;;;;;7.10;1.40;;;;;;;;;;5943252;29;20199;-88
2023/10/30 04:43:32;;;;;;;4.68;1.40;;;;;;;;;;5943987;29;20067;-87
2023/10/30 04:46:34;;;;;;;2.17;1.45;;;;;;;;;;5932684;29;20057;-88
2023/10/30 04:49:37;;;;;;;5.43;1.33;;;;;;;;;;5947671;29;20051;-88
2023/10/30 04:52:39;;;;;;;5.38;1.77;;;;;;;;;;5948328;29;20537;-88
2023/10/30 04:55:41;;;;;;;2.40;1.25;;;;;;;;;;5936357;29;20085;-88
2023/10/30 04:58:43;;;;;;;3.30;1.40;;;;;;;;;;5951450;29;20528;-88
2023/10/30 05:01:44;;;;;;;7.15;1.60;;;;;;;;;;5951171;29;20510;-88
2023/10/30 05:04:46;;;;;;;6.93;1.48;;;;;;;;;;5931761;29;20043;-88
2023/10/30 05:07:48;;;;;;;2.92;1.60;;;;;;;;;;5930197;29;20047;-88
2023/10/30 05:10:49;;;;;;;4.28;1.40;;;;;;;;;;5950130;29;20047;-89
2023/10/30 05:13:51;;;;;;;3.45;1.40;;;;;;;;;;5945423;29;20514;-88
2023/10/30 05:16:53;;;;;;;3.97;1.40;;;;;;;;;;5948016;29;20053;-88
2023/10/30 05:19:55;;;;;;;5.45;1.75;;;;;;;;;;5934992;29;20062;-87
2023/10/30 05:22:56;;;;;;;5.63;1.55;;;;;;;;;;5937374;29;20058;-88
2023/10/30 05:25:58;;;;;;;6.03;1.50;;;;;;;;;;5836085;24;20037;-81
2023/10/30 05:29:00;;;;;;;4.00;1.23;;;;;;;;;;5915598;29;20257;-82
2023/10/30 05:32:06;;;;;;;6.15;1.50;;;;;;;;;;5919487;29;20089;-82
2023/10/30 05:35:07;;;;;;;6.75;1.90;;;;;;;;;;5917083;29;20142;-83
2023/10/30 05:38:09;;;;;;;3.58;1.10;;;;;;;;;;5899281;29;20130;-82
2023/10/30 05:41:11;;;;;;;4.38;1.83;;;;;;;;;;5950315;29;20059;-81
2023/10/30 05:44:13;;;;;;;5.03;1.20;;;;;;;;;;5951288;29;20044;-83
2023/10/30 05:47:14;;;;;;;3.50;1.45;;;;;;;;;;5906019;29;20055;-83
2023/10/30 05:50:16;;;;;;;3.20;1.20;;;;;;;;;;5907185;29;20430;-84
2023/10/30 05:53:18;;;;;;;5.13;1.63;;;;;;;;;;5939495;29;20510;-83
2023/10/30 05:56:20;;;;;;;7.00;1.23;;;;;;;;;;5908260;29;20040;-82
2023/10/30 05:59:21;;;;;;;8.80;1.67;;;;;;;;;;5934888;29;20050;-83
2023/10/30 06:02:23;;;;;;;4.32;1.20;;;;;;;;;;5933263;29;20051;-82
2023/10/30 06:05:25;;;;;;;3.70;1.30;;;;;;;;;;5904031;29;20138;-84
2023/10/30 06:08:27;;;;;;;6.57;1.60;;;;;;;;;;5918849;29;20074;-84
2023/10/30 06:11:28;;;;;;;4.13;1.25;;;;;;;;;;5930247;29;20062;-82
2023/10/30 06:14:30;;;;;;;3.85;1.40;;;;;;;;;;5935044;29;20511;-82
2023/10/30 06:17:32;;;;;;;5.65;1.63;;;;;;;;;;5924876;29;20123;-83
2023/10/30 06:20:36;;;;;;;2.88;1.20;;;;;;;;;;5938336;29;20168;-84
2023/10/30 06:23:38;;;;;;;5.40;1.40;;;;;;;;;;5944283;29;20042;-81
2023/10/30 06:26:41;;;;;;;5.72;1.60;;;;;;;;;;5952215;29;20429;-81
2023/10/30 06:29:42;;;;;;;3.35;1.30;;;;;;;;;;5953844;29;20051;-81
2023/10/30 06:32:44;;;;;;;4.68;1.52;;;;;;;;;;5941807;29;20058;-81
2023/10/30 06:35:46;;;;;;;7.00;1.85;;;;;;;;;;5922415;29;20055;-81
2023/10/30 06:38:48;;;;;;;1.75;1.55;;;;;;;;;;5921669;29;20043;-82
2023/10/30 06:41:54;;;;;;;3.90;1.45;;;;;;;;;;5928041;29;20438;-81
2023/10/30 06:44:56;;;;;;;3.85;1.58;;;;;;;;;;5930444;29;20058;-80
2023/10/30 06:47:58;;;;;;;2.80;1.30;;;;;;;;;;5917814;29;20062;-81
2023/10/30 06:51:01;;;;;;;3.80;1.50;;;;;;;;;;5940317;29;20051;-81
2023/10/30 06:54:03;;;;;;;4.85;1.60;;;;;;;;;;5941817;29;20147;-81
2023/10/30 06:57:05;;;;;;;4.60;1.48;;;;;;;;;;5946950;29;20055;-80
2023/10/30 07:00:08;;;;;;;3.60;1.42;;;;;;;;;;5942866;29;20051;-84
2023/10/30 07:03:10;;;;;;;2.00;1.30;;;;;;;;;;5901998;29;20047;-84
2023/10/30 07:06:12;;;;;;;4.78;1.50;;;;;;;;;;5933709;29;20062;-82
2023/10/30 07:09:15;;;;;;;2.63;1.30;;;;;;;;;;5911066;29;20435;-83
2023/10/30 07:12:17;;;;;;;3.58;1.50;;;;;;;;;;5922891;29;20051;-82
2023/10/30 07:15:20;;;;;;;2.75;1.50;;;;;;;;;;5933323;29;20071;-83
2023/10/30 07:18:22;;;;;;;3.38;1.60;;;;;;;;;;5935554;29;20507;-82
2023/10/30 07:21:24;;;;;;;4.55;2.10;;;;;;;;;;5922884;29;20058;-82
2023/10/30 07:24:26;;;;;;;7.68;2.63;;;;;;;;;;5917780;29;20221;-83
2023/10/30 07:27:28;;;;;;;7.45;3.45;;;;;;;;;;5904201;29;20055;-82
2023/10/30 07:30:30;;;;;;;10.90;5.35;;;;;;;;;;5935149;29;20070;-81
2023/10/30 07:33:32;;;;;;;4.78;2.50;;;;;;;;;;5918215;29;20066;-81
2023/10/30 07:36:33;;;;;;;3.60;2.00;;;;;;;;;;5917517;29;20134;-82
2023/10/30 07:39:35;;;;;;;4.07;1.65;;;;;;;;;;5901594;29;20047;-83
2023/10/30 07:42:39;;;;;;;3.92;2.20;;;;;;;;;;5911911;30;20064;-81
2023/10/30 07:45:41;;;;;;;8.55;3.40;;;;;;;;;;5934335;29;20767;-81
2023/10/30 07:48:43;;;;;;;10.77;3.95;;;;;;;;;;5907413;29;20987;-83
2023/10/30 07:51:45;;;;;;;17.88;6.90;;;;;;;;;;5928317;29;20523;-81
2023/10/30 07:54:47;;;;;;;7.60;3.20;;;;;;;;;;5915194;29;20050;-82
2023/10/30 07:57:49;;;;;;;6.57;3.33;;;;;;;;;;5913411;29;20059;-80
2023/10/30 08:00:52;;;;;;;8.30;3.33;;;;;;;;;;5921254;29;20082;-81
2023/10/30 08:03:59;;;;;;;2.58;1.30;;;;;;;;;;5918318;29;20495;-81
2023/10/30 08:07:01;;;;;;;3.25;1.83;;;;;;;;;;5930014;29;20287;-82
2023/10/30 08:10:03;;;;;;;3.28;1.63;;;;;;;;;;5920654;29;20055;-81
2023/10/30 08:13:05;;;;;;;1.80;1.13;;;;;;;;;;5917994;29;20047;-80
2023/10/30 08:16:09;;;;;;;5.38;3.03;;;;;;;;;;5930939;29;20452;-80
2023/10/30 08:19:11;;;;;;;1.45;1.02;;;;;;;;;;5912824;29;20063;-82
2023/10/30 08:22:12;;;;;;;3.45;1.20;;;;;;;;;;5933627;29;20047;-81
2023/10/30 08:25:14;;;;;;;2.53;1.50;;;;;;;;;;5929986;29;20062;-81
2023/10/30 08:28:17;;;;;;;2.95;1.00;;;;;;;;;;5921079;29;20088;-80
2023/10/30 08:31:18;;;;;;;1.45;0.85;;;;;;;;;;5953021;29;20104;-80
2023/10/30 08:34:20;;;;;;;2.80;1.10;;;;;;;;;;5941987;29;20473;-81
2023/10/30 08:37:22;;;;;;;2.30;1.25;;;;;;;;;;5920352;29;20074;-81
2023/10/30 08:40:24;;;;;;;2.58;0.90;;;;;;;;;;5932881;29;20055;-83
2023/10/30 08:43:26;;;;;;;2.27;0.90;;;;;;;;;;5932035;29;20408;-82
2023/10/30 08:46:28;;;;;;;2.00;1.00;;;;;;;;;;5930125;29;20062;-79
2023/10/30 08:49:32;;;;;;;1.35;0.80;;;;;;;;;;5929029;29;20059;-82
2023/10/30 08:52:34;;;;;;;1.23;0.82;;;;;;;;;;5918434;29;20090;-81
2023/10/30 08:55:36;;;;;;;1.10;1.00;;;;;;;;;;5906606;29;20066;-80
2023/10/30 08:58:37;;;;;;;1.92;0.90;;;;;;;;;;5927517;29;20055;-81
2023/10/30 09:01:40;;;;;;;1.52;0.77;;;;;;;;;;5898986;29;20051;-80
2023/10/30 09:04:42;;;;;;;1.02;0.80;;;;;;;;;;5927482;29;20078;-81
2023/10/30 09:07:46;;;;;;;1.07;0.70;;;;;;;;;;5923504;29;20051;-82
2023/10/30 09:10:48;;;;;;;1.30;1.02;;;;;;;;;;5927456;29;20526;-82
2023/10/30 09:13:50;;;;;;;0.85;0.70;;;;;;;;;;5933912;29;20059;-83
2023/10/30 09:16:52;;;;;;;0.70;0.60;;;;;;;;;;5936677;29;21261;-82
2023/10/30 09:19:54;;;;;;;5.32;1.98;;;;;;;;;;5909027;29;20445;-82
2023/10/30 09:22:57;;;;;;;2.42;0.80;;;;;;;;;;5918099;29;20066;-83
2023/10/30 09:26:03;;;;;;;1.77;0.93;;;;;;;;;;5939862;29;20047;-83
2023/10/30 09:29:04;;;;;;;;;;;;;;;;;;5927619;29;20070;-83
2023/10/30 09:32:06;;;;;;;2.80;0.85;;;;;;;;;;5889040;29;19933;-82
2023/10/30 09:35:08;;;;;;;1.08;0.70;;;;;;;;;;5921888;29;20532;-83
2023/10/30 09:38:11;;;;;;;0.50;0.50;;;;;;;;;;5922357;29;20075;-83
2023/10/30 09:41:17;;;;;;;0.77;0.70;;;;;;;;;;5933001;29;20714;-81
2023/10/30 09:44:22;;;;;;;2.17;0.77;;;;;;;;;;5931366;29;20570;-82
2023/10/30 09:47:26;;;;;;;0.88;0.60;;;;;;;;;;5931732;29;20074;-82
2023/10/30 09:50:30;;;;;;;1.02;0.63;;;;;;;;;;5918180;29;20048;-83
2023/10/30 09:53:36;;;;;;;1.73;0.60;;;;;;;;;;5933190;29;20419;-82
2023/10/30 09:56:41;;;;;;;2.08;0.60;;;;;;;;;;5921534;29;20121;-82
2023/10/30 09:59:44;;;;;;;2.70;0.50;;;;;;;;;;5886523;29;20197;-82
2023/10/30 10:02:46;;;;;;;1.10;0.40;;;;;;;;;;5928015;29;20176;-82
2023/10/30 10:05:58;;;;;;;6.75;0.98;;;;;;;;;;5936369;29;20066;-82
2023/10/30 10:09:04;;;;;;;1.75;0.60;;;;;;;;;;5934024;29;20062;-82
2023/10/30 10:12:20;;;;;;;0.82;0.45;;;;;;;;;;5935003;29;20058;-82
2023/10/30 10:15:23;;;;;;;1.27;0.30;;;;;;;;;;5922165;29;20035;-81
2023/10/30 10:18:35;;;;;;;1.02;0.40;;;;;;;;;;5871633;29;20036;-82
2023/10/30 10:21:51;;;;;;;2.25;0.60;;;;;;;;;;5926746;29;20123;-82
2023/10/30 10:24:56;;;;;;;0.88;0.50;;;;;;;;;;5910036;29;20075;-83
2023/10/30 10:28:00;;;;;;;0.63;0.50;;;;;;;;;;5896610;29;20066;-81
2023/10/30 10:31:05;;;;;;;0.85;0.60;;;;;;;;;;5920143;29;20062;-81
2023/10/30 10:34:09;;;;;;;1.90;0.63;;;;;;;;;;5925796;29;20065;-80
2023/10/30 10:37:21;;;;;;;1.52;0.77;;;;;;;;;;5903304;29;20076;-83
2023/10/30 10:40:25;;;;;;;1.95;0.40;;;;;;;;;;5928722;29;20558;-81
2023/10/30 10:43:28;;;;;;;1.92;0.70;;;;;;;;;;5931917;29;20061;-82
2023/10/30 10:46:30;;;;;;;1.30;0.40;;;;;;;;;;5903968;29;20094;-80
2023/10/30 10:49:32;;;;;;;0.93;0.32;;;;;;;;;;5915320;29;20087;-80
2023/10/30 10:52:39;;;;;;;0.93;0.40;;;;;;;;;;5912608;29;20495;-82
2023/10/30 10:55:46;;;;;;;3.53;0.60;;;;;;;;;;5924019;29;20140;-81
2023/10/30 10:59:06;;;;;;;1.40;0.73;;;;;;;;;;5947847;29;20111;-81
2023/10/30 11:02:12;;;;;;;0.90;0.50;;;;;;;;;;5916601;29;20047;-82
2023/10/30 11:05:16;;;;;;;1.95;0.50;;;;;;;;;;5920411;29;20051;-81
2023/10/30 11:08:32;;;;;;;0.73;0.60;;;;;;;;;;5940899;29;20047;-81
2023/10/30 11:11:40;;;;;;;0.65;0.65;;;;;;;;;;5914989;29;20134;-82
2023/10/30 11:15:04;;;;;;;1.17;0.70;;;;;;;;;;5925535;29;20071;-83
2023/10/30 11:18:21;;;;;;;1.23;0.80;;;;;;;;;;5907475;29;20132;-80
2023/10/30 11:21:25;;;;;;;0.82;0.60;;;;;;;;;;5897051;29;20047;-82
2023/10/30 11:24:41;;;;;;;1.08;0.98;;;;;;;;;;5914360;29;20118;-83
2023/10/30 11:27:43;;;;;;;1.67;0.88;;;;;;;;;;5935257;29;20098;-82
2023/10/30 11:30:49;;;;;;;2.63;0.90;;;;;;;;;;5950248;29;20055;-82
2023/10/30 11:34:29;;;;;;;2.65;0.88;;;;;;;;;;5951493;29;20536;-82
2023/10/30 11:37:37;;;;;;;2.58;0.90;;;;;;;;;;5859724;29;20059;-83
2023/10/30 11:40:39;;;;;;;0.88;0.77;;;;;;;;;;5932927;29;20407;-83
2023/10/30 11:43:41;;;;;;;2.17;1.60;;;;;;;;;;5938873;29;20526;-84
2023/10/30 11:46:46;;;;;;;0.80;0.50;;;;;;;;;;5907980;29;20132;-84
2023/10/30 11:49:49;;;;;;;2.35;0.80;;;;;;;;;;5926196;29;20051;-84
2023/10/30 11:52:51;;;;;;;2.28;1.73;;;;;;;;;;5937909;29;20059;-84
2023/10/30 11:55:53;;;;;;;0.60;0.60;;;;;;;;;;5921108;29;20055;-84
2023/10/30 11:58:56;;;;;;;1.70;0.80;;;;;;;;;;5919087;29;20404;-84
2023/10/30 12:01:58;;;;;;;2.50;1.53;;;;;;;;;;5907217;29;20055;-84
2023/10/30 12:05:06;;;;;;;2.63;1.93;;;;;;;;;;5934344;29;20110;-83
2023/10/30 12:08:09;;;;;;;4.05;2.20;;;;;;;;;;5935261;29;20051;-83
2023/10/30 12:11:11;;;;;;;1.23;1.10;;;;;;;;;;5923027;29;20059;-82
2023/10/30 12:14:14;;;;;;;3.35;1.77;;;;;;;;;;5938804;29;20050;-84
2023/10/30 12:17:16;;;;;;;1.88;1.63;;;;;;;;;;5932458;29;20047;-83
2023/10/30 12:20:20;;;;;;;23.88;13.65;;;;;;;;;;5918451;29;20047;-83
2023/10/30 12:23:22;;;;;;;2.20;1.23;;;;;;;;;;5909175;29;20200;-83
2023/10/30 12:26:23;;;;;;;4.70;2.28;;;;;;;;;;5906395;29;20477;-83
2023/10/30 12:29:25;;;;;;;11.75;3.80;;;;;;;;;;5942341;29;20419;-80
2023/10/30 12:32:30;;;;;;;3.08;1.83;;;;;;;;;;5934041;29;20048;-83
2023/10/30 12:35:33;;;;;;;7.35;3.78;;;;;;;;;;5933753;29;20476;-83
2023/10/30 12:38:35;;;;;;;8.20;2.90;;;;;;;;;;5915745;29;20396;-80
2023/10/30 12:41:37;;;;;;;2.00;1.20;;;;;;;;;;5906254;29;20083;-84
2023/10/30 12:44:39;;;;;;;5.03;1.90;;;;;;;;;;5937710;29;20048;-81
2023/10/30 12:47:43;;;;;;;2.60;1.42;;;;;;;;;;5940358;29;20138;-81
2023/10/30 12:50:45;;;;;;;10.10;4.80;;;;;;;;;;5935677;29;20114;-83
2023/10/30 12:53:46;;;;;;;17.75;9.15;;;;;;;;;;5939663;29;20047;-83
2023/10/30 12:56:48;;;;;;;7.22;4.22;;;;;;;;;;5930853;29;20074;-84
2023/10/30 12:59:50;;;;;;;2.10;0.98;;;;;;;;;;5937260;29;20071;-83
2023/10/30 13:02:51;;;;;;;2.28;1.42;;;;;;;;;;5950739;29;20050;-82
2023/10/30 13:05:54;;;;;;;3.88;2.45;;;;;;;;;;5954196;29;20063;-82
2023/10/30 13:08:55;;;;;;;4.30;1.80;;;;;;;;;;5923723;29;20051;-81
2023/10/30 13:11:57;;;;;;;32.20;16.40;;;;;;;;;;5934867;29;20055;-83
2023/10/30 13:14:59;;;;;;;5.80;2.45;;;;;;;;;;5929339;29;20430;-83
2023/10/30 13:18:01;;;;;;;3.28;1.70;;;;;;;;;;5930236;29;20051;-81
2023/10/30 13:21:04;;;;;;;9.95;5.22;;;;;;;;;;5917483;29;20142;-80
2023/10/30 13:24:07;;;;;;;5.93;4.65;;;;;;;;;;5928710;29;20047;-81
2023/10/30 13:27:11;;;;;;;0.93;0.82;;;;;;;;;;5928960;29;20048;-82
2023/10/30 13:30:13;;;;;;;2.30;1.52;;;;;;;;;;5919072;29;20051;-81
2023/10/30 13:33:15;;;;;;;4.43;2.45;;;;;;;;;;5933062;29;20636;-81
2023/10/30 13:36:17;;;;;;;2.00;1.80;;;;;;;;;;5917443;29;20055;-83
2023/10/30 13:39:19;;;;;;;1.08;0.95;;;;;;;;;;5924659;29;20143;-83
2023/10/30 13:42:21;;;;;;;5.05;1.20;;;;;;;;;;5916258;29;20104;-83
2023/10/30 13:45:23;;;;;;;2.35;1.50;;;;;;;;;;5926388;29;20397;-83
2023/10/30 13:48:25;;;;;;;1.87;1.00;;;;;;;;;;5918895;29;20066;-82
2023/10/30 13:51:27;;;;;;;1.70;1.27;;;;;;;;;;5917975;29;20469;-81
2023/10/30 13:54:29;;;;;;;1.48;1.02;;;;;;;;;;5913002;29;20400;-83
2023/10/30 13:57:31;;;;;;;2.08;1.70;;;;;;;;;;5909486;29;20404;-82
2023/10/30 14:00:33;;;;;;;2.90;2.25;;;;;;;;;;5926863;29;20051;-83
2023/10/30 14:03:35;;;;;;;2.15;1.58;;;;;;;;;;5915322;29;20522;-83
2023/10/30 14:06:38;;;;;;;3.58;1.80;;;;;;;;;;5912032;29;20157;-83
2023/10/30 14:09:39;;;;;;;2.10;1.30;;;;;;;;;;5932672;29;20130;-84
2023/10/30 14:12:41;;;;;;;29.42;11.63;;;;;;;;;;5936284;29;20039;-82
2023/10/30 14:15:43;;;;;;;14.52;6.28;;;;;;;;;;5906228;29;20169;-83
2023/10/30 14:18:45;;;;;;;52.80;20.42;;;;;;;;;;5907836;29;20500;-83
2023/10/30 14:21:47;;;;;;;14.05;6.10;;;;;;;;;;5927038;29;20849;-81
2023/10/30 14:24:48;;;;;;;84.63;33.75;;;;;;;;;;5916956;29;20193;-82
2023/10/30 14:27:50;;;;;;;19.27;8.70;;;;;;;;;;5937596;29;20054;-81
2023/10/30 14:30:52;;;;;;;5.22;2.13;;;;;;;;;;5945038;29;20055;-82
2023/10/30 14:33:54;;;;;;;6.43;3.20;;;;;;;;;;5951978;29;20126;-82
2023/10/30 14:36:56;;;;;;;6.53;3.33;;;;;;;;;;5920415;29;20108;-81
2023/10/30 14:39:58;;;;;;;5.68;2.47;;;;;;;;;;5924782;29;20048;-82
2023/10/30 14:43:00;;;;;;;5.25;3.28;;;;;;;;;;5915071;29;20415;-82
2023/10/30 14:46:02;;;;;;;12.07;6.82;;;;;;;;;;5929937;29;20047;-83
2023/10/30 14:49:04;;;;;;;14.27;6.93;;;;;;;;;;5913239;29;20060;-84
2023/10/30 14:52:06;;;;;;;21.88;10.48;;;;;;;;;;5916642;29;20608;-82
2023/10/30 14:55:08;;;;;;;1.60;1.40;;;;;;;;;;5934695;29;20055;-82
2023/10/30 14:58:10;;;;;;;28.80;12.10;;;;;;;;;;5919716;29;20047;-82
2023/10/30 15:01:12;;;;;;;15.23;6.85;;;;;;;;;;5925387;29;20649;-82
2023/10/30 15:04:15;;;;;;;3.53;1.88;;;;;;;;;;5902040;29;20047;-82
2023/10/30 15:07:17;;;;;;;4.35;2.78;;;;;;;;;;5935536;29;20050;-82
2023/10/30 15:10:19;;;;;;;5.40;2.63;;;;;;;;;;5946963;29;20055;-82
2023/10/30 15:13:21;;;;;;;6.35;3.78;;;;;;;;;;5918450;29;20610;-82
2023/10/30 15:16:22;;;;;;;7.60;2.95;;;;;;;;;;5931469;29;20169;-83
2023/10/30 15:19:25;;;;;;;6.05;2.10;;;;;;;;;;5931860;29;20507;-82
2023/10/30 15:22:27;;;;;;;3.70;1.80;;;;;;;;;;5930783;29;20047;-83
2023/10/30 15:25:30;;;;;;;30.58;13.57;;;;;;;;;;5916417;29;20051;-83
2023/10/30 15:28:31;;;;;;;64.10;24.08;;;;;;;;;;5916460;29;20051;-82
2023/10/30 15:31:33;;;;;;;7.97;3.42;;;;;;;;;;5904680;29;20039;-83
2023/10/30 15:34:35;;;;;;;11.02;4.63;;;;;;;;;;5918998;29;20055;-81
2023/10/30 15:37:36;;;;;;;66.88;20.92;;;;;;;;;;5920216;29;20051;-82
2023/10/30 15:40:38;;;;;;;30.60;11.73;;;;;;;;;;5919518;29;20063;-82
2023/10/30 15:43:40;;;;;;;60.90;21.33;;;;;;;;;;5931467;29;20055;-83
2023/10/30 15:46:42;;;;;;;59.22;21.35;;;;;;;;;;5934806;29;20058;-83
2023/10/30 15:49:57;;;;;;;38.00;14.40;;;;;;;;;;5914775;29;20051;-81
2023/10/30 15:52:59;;;;;;;54.10;20.65;;;;;;;;;;5904501;29;20116;-82
2023/10/30 15:56:01;;;;;;;51.78;22.67;;;;;;;;;;5913152;29;20060;-81
2023/10/30 15:59:03;;;;;;;16.52;6.75;;;;;;;;;;5920300;29;20059;-82
2023/10/30 16:02:08;;;;;;;3.33;2.30;;;;;;;;;;5928937;29;20044;-82
2023/10/30 16:05:10;;;;;;;6.85;3.13;;;;;;;;;;5913460;29;20455;-83
2023/10/30 16:08:12;;;;;;;10.95;5.85;;;;;;;;;;5916032;29;20055;-82
2023/10/30 16:11:34;;;;;;;5.85;2.70;;;;;;;;;;5942020;29;20136;-82
2023/10/30 16:14:37;;;;;;;;;;;;;;;;;;5929001;29;20054;-81
2023/10/30 16:17:39;;;;;;;3.92;3.10;;;;;;;;;;5932329;29;20386;-84
2023/10/30 16:20:41;;;;;;;4.80;1.87;;;;;;;;;;5910868;29;20611;-81
2023/10/30 16:23:58;;;;;;;3.05;2.05;;;;;;;;;;5933482;29;20055;-81
2023/10/30 16:27:00;;;;;;;7.32;3.20;;;;;;;;;;5915721;29;20175;-82
2023/10/30 16:30:03;;;;;;;2.58;1.90;;;;;;;;;;5915267;29;20072;-82
2023/10/30 16:33:05;;;;;;;3.75;3.00;;;;;;;;;;5914822;29;20138;-81
2023/10/30 16:36:07;;;;;;;6.60;4.72;;;;;;;;;;5899945;29;20078;-81
2023/10/30 16:39:09;;;;;;;5.82;4.18;;;;;;;;;;5914231;29;20058;-80
2023/10/30 16:42:10;;;;;;;5.47;3.28;;;;;;;;;;5929638;29;20044;-81
2023/10/30 16:45:12;;;;;;;7.18;2.60;;;;;;;;;;5931037;29;20055;-81
2023/10/30 16:48:14;;;;;;;4.95;2.90;;;;;;;;;;5914096;29;20054;-81
2023/10/30 16:51:16;;;;;;;3.63;2.72;;;;;;;;;;5914905;29;20058;-81
2023/10/30 16:54:18;;;;;;;6.20;2.42;;;;;;;;;;5929829;29;20055;-82
2023/10/30 16:57:20;;;;;;;3.03;2.70;;;;;;;;;;5913300;29;20047;-81
2023/10/30 17:00:22;;;;;;;5.25;2.85;;;;;;;;;;5896025;29;20406;-80
2023/10/30 17:03:24;;;;;;;11.57;3.83;;;;;;;;;;5893747;29;20431;-81
2023/10/30 17:06:26;;;;;;;7.40;4.82;;;;;;;;;;5912525;29;20055;-81
2023/10/30 17:09:27;;;;;;;7.00;3.88;;;;;;;;;;5907697;29;20338;-80
2023/10/30 17:12:29;;;;;;;4.65;2.72;;;;;;;;;;5895315;29;20208;-81
2023/10/30 17:15:31;;;;;;;3.63;2.72;;;;;;;;;;5908345;29;20044;-81
2023/10/30 17:18:33;;;;;;;5.38;3.00;;;;;;;;;;5908876;29;20044;-82
2023/10/30 17:21:35;;;;;;;4.60;2.83;;;;;;;;;;5918852;29;20059;-78
2023/10/30 17:24:36;;;;;;;6.15;2.85;;;;;;;;;;5907389;29;20455;-80
2023/10/30 17:27:38;;;;;;;5.47;3.80;;;;;;;;;;5910115;29;20051;-82
2023/10/30 17:30:40;;;;;;;7.47;4.18;;;;;;;;;;5910653;29;20039;-82
2023/10/30 17:33:42;;;;;;;6.80;4.28;;;;;;;;;;5927260;29;20066;-81
2023/10/30 17:36:45;;;;;;;10.02;7.60;;;;;;;;;;5946663;29;20108;-81
2023/10/30 17:39:47;;;;;;;20.65;9.88;;;;;;;;;;5934952;29;20065;-84
2023/10/30 17:42:50;;;;;;;9.77;6.75;;;;;;;;;;5931728;29;20052;-81
2023/10/30 17:45:54;;;;;;;5.80;3.85;;;;;;;;;;5948414;29;20066;-82
2023/10/30 17:48:56;;;;;;;8.15;5.57;;;;;;;;;;5908418;29;20537;-83
2023/10/30 17:51:58;;;;;;;6.68;4.18;;;;;;;;;;5933010;29;20055;-83
2023/10/30 17:54:59;;;;;;;3.75;2.78;;;;;;;;;;5935071;29;20052;-83
2023/10/30 17:58:01;;;;;;;11.93;5.43;;;;;;;;;;5911686;29;20066;-82
2023/10/30 18:01:04;;;;;;;8.15;4.20;;;;;;;;;;5933078;29;20055;-81
2023/10/30 18:04:06;;;;;;;4.57;2.17;;;;;;;;;;5932221;29;20805;-81
2023/10/30 18:07:08;;;;;;;5.40;3.30;;;;;;;;;;5932282;29;20082;-81
2023/10/30 18:10:10;;;;;;;6.05;3.20;;;;;;;;;;5929275;29;20193;-81
2023/10/30 18:13:12;;;;;;;7.53;4.70;;;;;;;;;;5930490;29;20063;-82
2023/10/30 18:16:14;;;;;;;8.70;6.40;;;;;;;;;;5933666;29;20509;-81